Time;durP1;ratioP1;P1;durP2;ratioP2;P2;SDS_P1;SDS_P2;PMS_P1;PMS_P2;Temp;Humidity;BMP_temperature;BMP_pressure;BME280_temperature;BME280_humidity;BME280_pressure;Samples;Min_cycle;Max_cycle;Signal;HPM_P1;HPM_P2
2022/10/06 00:01:08;;;;;;;3.80;2.30;;;16.90;99.90;;;17.13;nan;101341.72;5010651;28;21268;-68
2022/10/06 00:03:37;;;;;;;3.30;2.07;;;16.80;99.90;;;17.11;nan;101335.75;4990973;28;21157;-68
2022/10/06 00:06:06;;;;;;;3.20;2.50;;;16.80;99.90;;;17.11;nan;101335.75;5014186;28;20640;-69
2022/10/06 00:08:36;;;;;;;2.47;2.37;;;16.80;99.90;;;17.14;nan;101338.13;4995953;28;20633;-68
2022/10/06 00:11:04;;;;;;;2.77;2.57;;;16.80;99.90;;;17.10;nan;101350.72;5001650;28;20652;-67
2022/10/06 00:13:31;;;;;;;2.10;2.00;;;16.80;99.90;;;17.13;nan;101344.34;5013826;28;20638;-67
2022/10/06 00:15:58;;;;;;;2.20;2.10;;;16.80;99.90;;;17.13;nan;101352.25;5014660;28;20642;-67
2022/10/06 00:18:27;;;;;;;2.67;2.47;;;16.70;99.90;;;17.22;nan;101343.53;4996217;28;20633;-67
2022/10/06 00:20:59;;;;;;;2.40;2.20;;;16.80;99.90;;;17.10;nan;101345.44;5013831;28;20683;-67
2022/10/06 00:23:30;;;;;;;2.80;2.60;;;16.80;99.90;;;17.08;nan;101345.59;5013003;28;20629;-65
2022/10/06 00:25:57;;;;;;;7.03;2.17;;;16.80;99.90;;;17.04;nan;101343.34;5013818;28;21261;-66
2022/10/06 00:28:24;;;;;;;3.47;2.27;;;16.70;99.90;;;17.03;nan;101345.19;5014136;28;20617;-67
2022/10/06 00:30:52;;;;;;;2.27;2.17;;;16.70;99.90;;;17.15;nan;101345.03;5014948;28;20997;-67
2022/10/06 00:33:19;;;;;;;2.03;1.87;;;16.80;99.90;;;17.16;nan;101344.94;5013786;28;21197;-69
2022/10/06 00:35:55;;;;;;;1.97;1.87;;;16.80;99.90;;;17.06;nan;101336.97;5005331;28;20684;-67
2022/10/06 00:38:22;;;;;;;2.17;1.80;;;16.70;99.90;;;16.94;nan;101338.06;4996010;28;20609;-67
2022/10/06 00:40:50;;;;;;;3.83;2.10;;;16.70;99.90;;;16.88;nan;101335.97;5013574;28;21216;-67
2022/10/06 00:43:48;;;;;;;4.43;2.27;;;16.70;99.90;;;16.81;nan;101342.75;5003977;28;21189;-68
2022/10/06 00:46:49;;;;;;;2.20;2.00;;;16.60;99.90;;;16.67;nan;101340.47;5012543;28;20738;-68
2022/10/06 00:49:28;;;;;;;2.10;2.00;;;16.50;99.90;;;16.69;nan;101348.22;4998296;28;20625;-67
2022/10/06 00:52:04;;;;;;;1.77;1.67;;;16.50;99.90;;;16.77;nan;101356.31;4995594;28;20978;-67
2022/10/06 00:54:33;;;;;;;1.70;1.60;;;16.50;99.90;;;16.72;nan;101366.41;4996837;28;20670;-67
2022/10/06 00:57:02;;;;;;;2.47;1.73;;;16.40;99.90;;;16.60;nan;101373.56;5002491;28;21280;-68
2022/10/06 00:59:29;;;;;;;5.57;2.53;;;16.40;99.90;;;16.64;nan;101379.41;5004749;28;20708;-67
2022/10/06 01:02:03;;;;;;;2.70;2.23;;;16.40;99.90;;;16.65;nan;101387.16;5012839;28;21240;-67
2022/10/06 01:04:34;;;;;;;3.50;2.43;;;16.30;99.90;;;16.66;nan;101396.75;4994683;28;20646;-67
2022/10/06 01:07:02;;;;;;;7.80;3.00;;;16.30;99.90;;;16.64;nan;101401.31;4995460;28;20634;-67
2022/10/06 01:09:30;;;;;;;3.70;2.37;;;16.30;99.90;;;16.65;nan;101413.50;4995160;28;20643;-67
2022/10/06 01:12:03;;;;;;;3.80;2.40;;;16.30;99.90;;;16.57;nan;101408.06;5012778;28;20699;-67
2022/10/06 01:14:30;;;;;;;3.20;2.63;;;16.30;99.90;;;16.62;nan;101413.78;4994108;28;20666;-67
2022/10/06 01:17:03;;;;;;;2.50;2.30;;;16.30;99.90;;;16.58;nan;101407.13;4994575;28;20958;-67
2022/10/06 01:20:03;;;;;;;3.20;2.70;;;16.30;99.90;;;16.48;nan;101408.84;4994591;28;20634;-66
2022/10/06 01:22:34;;;;;;;4.77;2.67;;;16.20;99.90;;;16.46;nan;101417.81;4995400;28;20641;-67
2022/10/06 01:25:06;;;;;;;8.70;2.70;;;16.20;99.90;;;16.41;nan;101420.00;4995150;28;20665;-67
2022/10/06 01:27:36;;;;;;;2.40;2.20;;;16.10;99.90;;;16.44;nan;101423.19;4996418;28;21123;-67
2022/10/06 01:30:06;;;;;;;3.00;2.80;;;16.10;99.90;;;16.45;nan;101426.69;4989620;28;20637;-68
2022/10/06 01:32:36;;;;;;;3.20;2.90;;;16.10;99.90;;;16.37;nan;101416.81;4996029;28;20667;-67
2022/10/06 01:35:07;;;;;;;2.47;2.27;;;16.10;99.90;;;16.34;nan;101422.31;4995772;28;20668;-67
2022/10/06 01:37:34;;;;;;;2.70;2.50;;;16.10;99.90;;;16.30;nan;101434.06;5013039;28;20624;-67
2022/10/06 01:40:01;;;;;;;4.10;2.53;;;16.00;99.90;;;16.26;nan;101425.59;5011334;28;20648;-68
2022/10/06 01:42:30;;;;;;;2.57;2.47;;;16.00;99.90;;;16.32;nan;101434.78;5015058;28;20629;-67
2022/10/06 01:44:58;;;;;;;2.60;2.50;;;16.00;99.90;;;16.22;nan;101431.25;5013351;28;20723;-67
2022/10/06 01:47:25;;;;;;;2.30;2.10;;;15.90;99.90;;;16.27;nan;101429.03;5012942;28;20638;-67
2022/10/06 01:49:52;;;;;;;4.10;2.70;;;15.90;99.90;;;16.27;nan;101436.94;5012414;28;21254;-67
2022/10/06 01:52:19;;;;;;;4.23;2.90;;;16.00;99.90;;;16.18;nan;101435.09;5011128;28;21214;-68
2022/10/06 01:54:46;;;;;;;2.60;2.40;;;15.90;99.90;;;16.20;nan;101435.81;4994777;28;20688;-67
2022/10/06 01:57:13;;;;;;;3.97;3.10;;;15.90;99.90;;;16.20;nan;101438.44;5012931;28;20622;-68
2022/10/06 01:59:40;;;;;;;8.87;2.60;;;15.90;99.90;;;16.20;nan;101439.28;5012244;28;21003;-67
2022/10/06 02:02:07;;;;;;;3.30;2.83;;;15.90;99.90;;;16.12;nan;101439.06;5012012;28;20675;-67
2022/10/06 02:04:34;;;;;;;2.40;2.20;;;15.90;99.90;;;16.23;nan;101443.44;4993585;28;20640;-67
2022/10/06 02:07:01;;;;;;;4.40;2.23;;;15.90;99.90;;;16.15;nan;101448.50;5011984;28;20633;-67
2022/10/06 02:09:28;;;;;;;2.80;2.50;;;15.90;99.90;;;16.16;nan;101452.81;5011406;28;20626;-67
2022/10/06 02:11:55;;;;;;;5.40;2.20;;;15.90;99.90;;;16.35;nan;101449.50;5013327;28;20613;-67
2022/10/06 02:14:22;;;;;;;2.93;2.63;;;15.90;99.90;;;16.35;nan;101452.97;5012485;28;20670;-67
2022/10/06 02:16:49;;;;;;;3.10;2.80;;;16.00;99.90;;;16.31;nan;101459.47;5013209;28;20642;-67
2022/10/06 02:19:16;;;;;;;5.77;2.70;;;16.00;99.90;;;16.37;nan;101466.00;5007588;28;20643;-68
2022/10/06 02:21:43;;;;;;;7.97;3.30;;;16.00;99.90;;;16.54;nan;101461.03;4997663;28;20623;-68
2022/10/06 02:24:10;;;;;;;4.37;2.60;;;16.10;99.90;;;16.62;nan;101470.91;4987195;28;20631;-68
2022/10/06 02:26:37;;;;;;;3.27;2.97;;;16.10;99.90;;;16.57;nan;101481.03;5012950;28;20666;-67
2022/10/06 02:29:04;;;;;;;3.83;2.20;;;16.20;99.90;;;16.58;nan;101486.16;5010312;28;20624;-68
2022/10/06 02:31:31;;;;;;;3.93;3.10;;;16.20;99.90;;;16.63;nan;101489.22;4994801;28;20622;-67
2022/10/06 02:33:57;;;;;;;2.90;2.27;;;16.30;99.90;;;16.68;nan;101492.31;5011874;28;20662;-67
2022/10/06 02:36:24;;;;;;;2.83;2.63;;;16.30;99.90;;;16.59;nan;101498.34;5011287;28;20681;-67
2022/10/06 02:38:51;;;;;;;2.80;2.60;;;16.30;99.90;;;16.58;nan;101499.34;5011133;28;20613;-67
2022/10/06 02:41:18;;;;;;;4.57;2.70;;;16.20;99.90;;;16.68;nan;101508.13;5011776;28;20638;-67
2022/10/06 02:43:46;;;;;;;4.93;3.30;;;16.30;99.90;;;16.71;nan;101507.06;5012391;28;20624;-68
2022/10/06 02:46:13;;;;;;;3.90;2.57;;;16.30;99.90;;;16.77;nan;101512.66;5011336;28;20657;-67
2022/10/06 02:48:41;;;;;;;2.77;2.23;;;16.30;99.90;;;16.82;nan;101515.72;5011618;28;20637;-68
2022/10/06 02:51:17;;;;;;;7.10;2.67;;;16.40;99.90;;;16.99;nan;101530.94;4994302;28;20621;-67
2022/10/06 02:53:47;;;;;;;3.50;2.53;;;16.50;99.90;;;17.10;nan;101550.31;4993923;28;20622;-67
2022/10/06 02:56:17;;;;;;;2.67;2.47;;;16.60;99.90;;;17.13;nan;101545.59;5011367;28;20686;-67
2022/10/06 02:58:46;;;;;;;1.13;1.13;;;16.70;99.90;;;17.22;nan;101557.19;5011286;28;21201;-68
2022/10/06 03:01:20;;;;;;;1.27;1.27;;;16.70;99.90;;;17.21;nan;101558.97;5011575;28;20636;-68
2022/10/06 03:03:47;;;;;;;1.50;1.40;;;16.70;99.90;;;17.18;nan;101558.41;5009836;28;20630;-68
2022/10/06 03:06:22;;;;;;;0.97;0.97;;;16.70;99.90;;;17.13;nan;101555.31;5010811;28;20676;-67
2022/10/06 03:08:51;;;;;;;2.10;0.73;;;16.70;99.90;;;16.94;nan;101556.03;5010358;28;20640;-66
2022/10/06 03:11:21;;;;;;;1.47;1.37;;;16.70;99.90;;;17.01;nan;101562.47;5010059;28;20626;-67
2022/10/06 03:13:50;;;;;;;0.60;0.60;;;16.60;99.90;;;16.92;nan;101571.16;5012152;28;20614;-67
2022/10/06 03:16:23;;;;;;;1.57;0.70;;;16.60;99.90;;;16.97;nan;101577.69;5011128;28;20684;-68
2022/10/06 03:18:53;;;;;;;0.80;0.60;;;16.60;99.90;;;16.87;nan;101581.22;5011129;28;21162;-67
2022/10/06 03:21:26;;;;;;;0.50;0.50;;;16.50;99.90;;;16.95;nan;101579.63;4993228;28;21003;-67
2022/10/06 03:23:55;;;;;;;0.93;0.83;;;16.50;99.90;;;16.76;nan;101584.75;5011963;28;21049;-67
2022/10/06 03:26:44;;;;;;;0.50;0.50;;;16.50;99.90;;;16.86;nan;101595.38;5037107;22;20693;-63
2022/10/06 03:29:12;;;;;;;1.27;0.67;;;16.40;99.90;;;16.94;nan;101598.22;5004184;28;20701;-65
2022/10/06 03:31:39;;;;;;;2.80;0.70;;;16.50;99.90;;;16.97;nan;101606.69;5024538;28;20621;-64
2022/10/06 03:34:06;;;;;;;1.23;0.50;;;16.50;99.90;;;17.06;nan;101610.38;5029923;28;20629;-64
2022/10/06 03:36:35;;;;;;;0.67;0.63;;;16.50;99.90;;;16.99;nan;101611.88;5000572;28;20673;-64
2022/10/06 03:39:04;;;;;;;0.40;0.40;;;16.50;99.90;;;17.00;nan;101618.78;5010188;28;20639;-64
2022/10/06 03:41:35;;;;;;;2.03;0.70;;;16.60;99.90;;;16.95;nan;101626.28;4994220;28;20630;-64
2022/10/06 03:44:02;;;;;;;0.60;0.60;;;16.60;99.90;;;16.86;nan;101627.88;4993417;28;21198;-65
2022/10/06 03:46:32;;;;;;;0.50;0.50;;;16.50;99.90;;;16.80;nan;101633.63;5011541;28;20711;-65
2022/10/06 03:49:00;;;;;;;1.97;0.60;;;16.50;99.90;;;16.96;nan;101634.03;4990398;28;21088;-65
2022/10/06 03:51:34;;;;;;;1.50;0.60;;;16.50;99.90;;;16.86;nan;101630.50;4985525;28;20634;-64
2022/10/06 03:54:02;;;;;;;0.97;0.50;;;16.50;99.90;;;16.88;nan;101633.84;5009455;28;20611;-64
2022/10/06 03:56:35;;;;;;;0.90;0.40;;;16.50;99.90;;;16.91;nan;101624.81;4992490;28;20703;-65
2022/10/06 03:59:06;;;;;;;0.67;0.60;;;16.50;99.90;;;16.96;nan;101631.41;5009988;28;21257;-63
2022/10/06 04:01:40;;;;;;;1.80;0.70;;;16.50;99.90;;;16.90;nan;101638.97;5010680;28;20664;-63
2022/10/06 04:04:08;;;;;;;1.57;0.50;;;16.50;99.90;;;16.89;nan;101647.84;4991801;28;20630;-63
2022/10/06 04:06:39;;;;;;;0.80;0.67;;;16.50;99.90;;;16.93;nan;101652.72;5010307;28;21248;-63
2022/10/06 04:09:09;;;;;;;0.50;0.50;;;16.50;99.90;;;17.00;nan;101656.56;5009465;28;20645;-63
2022/10/06 04:11:42;;;;;;;1.73;0.63;;;16.50;99.90;;;17.04;nan;101660.59;4993612;28;20621;-63
2022/10/06 04:14:13;;;;;;;0.70;0.70;;;16.60;99.90;;;16.98;nan;101663.75;5009213;28;20638;-61
2022/10/06 04:16:43;;;;;;;1.27;0.90;;;16.60;99.90;;;16.92;nan;101669.53;4993617;28;20669;-63
2022/10/06 04:19:13;;;;;;;2.30;0.80;;;16.60;99.90;;;16.98;nan;101670.81;4991904;28;20630;-66
2022/10/06 04:21:42;;;;;;;1.33;0.90;;;16.60;99.90;;;16.96;nan;101676.22;5007612;28;20971;-63
2022/10/06 04:24:10;;;;;;;1.17;0.67;;;16.60;99.90;;;17.09;nan;101670.78;5009560;28;20633;-63
2022/10/06 04:26:41;;;;;;;3.40;0.70;;;16.60;99.90;;;17.04;nan;101679.06;4992582;28;20668;-64
2022/10/06 04:29:08;;;;;;;0.70;0.70;;;16.60;99.90;;;17.06;nan;101687.69;4991671;28;21201;-63
2022/10/06 04:31:37;;;;;;;0.60;0.60;;;16.60;99.90;;;17.00;nan;101685.56;5009841;28;20620;-63
2022/10/06 04:34:06;;;;;;;1.23;0.80;;;16.60;99.90;;;16.98;nan;101705.94;5009096;28;20629;-64
2022/10/06 04:36:40;;;;;;;0.97;0.70;;;16.50;99.90;;;16.78;nan;101708.53;5010920;28;21035;-64
2022/10/06 04:39:10;;;;;;;0.80;0.70;;;16.50;99.90;;;16.72;nan;101709.84;4975198;28;21057;-64
2022/10/06 04:41:40;;;;;;;2.20;0.93;;;16.50;99.90;;;16.78;nan;101711.97;5011058;28;20687;-65
2022/10/06 04:44:07;;;;;;;0.67;0.67;;;16.40;99.90;;;16.77;nan;101710.31;4992141;28;20630;-62
2022/10/06 04:46:35;;;;;;;1.37;0.87;;;16.40;99.90;;;16.86;nan;101717.50;4993929;28;20641;-63
2022/10/06 04:49:12;;;;;;;1.93;0.80;;;16.50;99.90;;;16.80;nan;101717.97;4993866;28;21207;-63
2022/10/06 04:51:48;;;;;;;0.57;0.57;;;16.40;99.90;;;16.94;nan;101720.34;4995359;28;20629;-65
2022/10/06 04:54:17;;;;;;;1.80;0.77;;;16.50;99.90;;;16.72;nan;101722.19;4996383;28;20698;-64
2022/10/06 04:56:45;;;;;;;1.73;0.60;;;16.40;99.90;;;16.77;nan;101723.50;5014248;28;21101;-63
2022/10/06 04:59:12;;;;;;;1.40;0.67;;;16.40;99.90;;;16.84;nan;101734.38;5012320;28;20650;-62
2022/10/06 05:01:39;;;;;;;0.60;0.60;;;16.40;99.90;;;16.90;nan;101739.16;5012580;28;20633;-63
2022/10/06 05:04:06;;;;;;;1.47;1.00;;;16.40;99.90;;;16.85;nan;101736.03;4980053;28;20614;-63
2022/10/06 05:06:39;;;;;;;1.03;0.90;;;16.40;99.90;;;16.78;nan;101737.53;5011942;28;20726;-63
2022/10/06 05:09:14;;;;;;;1.73;1.10;;;16.40;99.90;;;16.77;nan;101749.84;5012722;28;20683;-63
2022/10/06 05:11:41;;;;;;;2.07;1.00;;;16.40;99.90;;;16.85;nan;101751.88;5012922;28;21274;-63
2022/10/06 05:14:08;;;;;;;1.13;1.13;;;16.40;99.90;;;16.82;nan;101752.13;5012052;28;20634;-63
2022/10/06 05:16:36;;;;;;;2.43;1.10;;;16.40;99.90;;;16.89;nan;101759.41;5013332;28;20666;-63
2022/10/06 05:19:04;;;;;;;5.80;3.10;;;16.40;99.90;;;16.92;nan;101756.53;5012436;28;21182;-64
2022/10/06 05:21:32;;;;;;;0.80;0.80;;;16.40;99.90;;;16.89;nan;101758.56;5014110;28;20628;-64
2022/10/06 05:23:59;;;;;;;1.43;0.90;;;16.40;99.90;;;16.91;nan;101759.28;5012184;28;20630;-64
2022/10/06 05:26:32;;;;;;;2.37;0.90;;;16.50;99.90;;;16.81;nan;101761.81;5012798;28;20680;-64
2022/10/06 05:29:00;;;;;;;0.80;0.80;;;16.40;99.90;;;16.90;nan;101770.78;5008143;28;20678;-64
2022/10/06 05:31:32;;;;;;;0.90;0.90;;;16.40;99.90;;;16.84;nan;101777.41;5012275;28;20637;-64
2022/10/06 05:33:59;;;;;;;0.90;0.80;;;16.40;99.90;;;16.84;nan;101785.31;5012497;28;20624;-64
2022/10/06 05:36:29;;;;;;;2.50;0.97;;;16.40;99.90;;;16.91;nan;101778.56;4995711;28;20680;-64
2022/10/06 05:38:57;;;;;;;1.03;0.90;;;16.40;99.90;;;16.87;nan;101785.06;5013473;28;20614;-63
2022/10/06 05:41:30;;;;;;;3.67;0.80;;;16.40;99.90;;;16.84;nan;101787.09;4996227;28;20621;-64
2022/10/06 05:43:57;;;;;;;1.47;0.90;;;16.40;99.90;;;16.83;nan;101795.97;5012695;28;20638;-64
2022/10/06 05:46:30;;;;;;;2.60;0.90;;;16.40;99.90;;;16.86;nan;101795.72;5012713;28;20646;-63
2022/10/06 05:49:02;;;;;;;0.67;0.67;;;16.40;99.90;;;16.80;nan;101807.59;4995176;28;20621;-63
2022/10/06 05:51:31;;;;;;;0.60;0.60;;;16.40;99.90;;;16.91;nan;101818.13;4995517;28;21022;-64
2022/10/06 05:53:59;;;;;;;2.83;0.97;;;16.40;99.90;;;16.98;nan;101823.75;4995322;28;20618;-65
2022/10/06 05:56:29;;;;;;;0.90;0.77;;;16.50;99.90;;;16.86;nan;101815.03;5012731;28;20673;-65
2022/10/06 05:58:58;;;;;;;2.53;1.00;;;16.40;99.90;;;16.88;nan;101830.72;5012401;28;20633;-65
2022/10/06 06:01:30;;;;;;;0.90;0.90;;;16.40;99.90;;;16.91;nan;101841.84;4995592;28;20621;-64
2022/10/06 06:04:03;;;;;;;0.83;0.77;;;16.50;99.90;;;16.94;nan;101844.25;5002780;28;20634;-64
2022/10/06 06:06:44;;;;;;;1.07;1.00;;;16.50;99.90;;;16.92;nan;101850.59;5011606;28;20656;-65
2022/10/06 06:09:20;;;;;;;1.47;1.07;;;16.50;99.90;;;16.84;nan;101856.50;5011577;28;20695;-64
2022/10/06 06:11:49;;;;;;;2.10;1.53;;;16.50;99.90;;;16.89;nan;101854.31;5012404;28;20619;-64
2022/10/06 06:15:59;;;;;;;2.47;1.13;;;16.50;99.90;;;16.84;nan;101853.84;4994866;28;20633;-64
2022/10/06 06:17:06;;;;;;;1.33;1.23;;;16.50;99.90;;;16.78;nan;101851.69;5012214;28;21029;-64
2022/10/06 06:19:33;;;;;;;5.60;1.67;;;16.40;99.90;;;16.87;nan;101871.19;5007681;28;20637;-65
2022/10/06 06:22:00;;;;;;;9.20;1.80;;;16.40;99.90;;;16.92;nan;101869.91;4987478;28;21161;-63
2022/10/06 06:24:27;;;;;;;2.67;1.17;;;16.50;99.90;;;17.02;nan;101877.91;5010930;28;20695;-64
2022/10/06 06:26:54;;;;;;;2.13;1.10;;;16.50;99.90;;;17.12;nan;101876.25;5012684;28;20656;-64
2022/10/06 06:29:22;;;;;;;0.73;0.73;;;16.60;99.90;;;17.25;nan;101876.09;5005403;28;20639;-64
2022/10/06 06:31:49;;;;;;;2.53;1.07;;;16.70;99.90;;;17.31;nan;101880.88;4975748;28;20637;-62
2022/10/06 06:34:16;;;;;;;2.90;1.13;;;16.70;99.90;;;17.43;nan;101890.44;5010492;28;21095;-64
2022/10/06 06:36:46;;;;;;;0.93;0.90;;;16.80;99.90;;;17.57;nan;101906.00;5010719;28;20677;-63
2022/10/06 06:39:14;;;;;;;1.27;0.60;;;16.90;99.90;;;17.66;nan;101905.25;5011512;28;20675;-64
2022/10/06 06:41:44;;;;;;;5.40;0.70;;;17.00;99.90;;;17.80;nan;101911.09;4991429;28;21233;-64
2022/10/06 06:44:12;;;;;;;3.10;0.90;;;17.10;99.90;;;17.95;nan;101919.56;5005367;28;21006;-64
2022/10/06 06:46:48;;;;;;;1.03;0.90;;;17.20;99.90;;;17.95;nan;101927.50;5011672;28;20668;-65
2022/10/06 06:49:16;;;;;;;2.77;0.77;;;17.30;99.90;;;17.96;nan;101931.78;4990005;28;20638;-64
2022/10/06 06:51:48;;;;;;;0.90;0.80;;;17.30;99.90;;;18.00;nan;101927.94;5003170;28;20632;-64
2022/10/06 06:54:17;;;;;;;1.83;0.87;;;17.40;99.90;;;18.01;nan;101934.91;5009734;28;21429;-64
2022/10/06 06:56:45;;;;;;;2.53;1.00;;;17.40;99.90;;;18.14;nan;101946.13;4994586;28;21114;-64
2022/10/06 06:59:12;;;;;;;2.03;1.00;;;17.50;99.90;;;18.14;nan;101940.00;5012785;28;20695;-64
2022/10/06 07:01:44;;;;;;;1.80;1.07;;;17.50;99.90;;;18.14;nan;101946.13;5006228;28;20633;-64
2022/10/06 07:04:14;;;;;;;1.73;1.27;;;17.60;99.90;;;18.10;nan;101943.88;5010853;28;20625;-64
2022/10/06 07:06:52;;;;;;;0.70;0.70;;;17.60;99.90;;;18.15;nan;101962.81;4988826;28;21261;-64
2022/10/06 07:09:19;;;;;;;10.50;0.90;;;17.60;99.90;;;18.09;nan;101969.44;4993925;28;20622;-64
2022/10/06 07:11:46;;;;;;;3.43;1.03;;;17.60;99.90;;;18.00;nan;101964.06;5009570;28;20696;-65
2022/10/06 07:14:13;;;;;;;0.77;0.73;;;17.60;99.90;;;17.91;nan;101970.94;5011209;28;20617;-64
2022/10/06 07:25:16;;;;;;;1.60;0.80;;;17.70;99.90;;;19.03;nan;101982.63;4995499;28;20629;-64
2022/10/06 07:27:51;;;;;;;0.80;0.80;;;18.00;99.90;;;19.76;nan;101999.03;5010980;28;20618;-64
2022/10/06 07:30:25;;;;;;;3.47;0.90;;;18.50;99.90;;;20.10;nan;102002.16;5008816;28;20641;-64
2022/10/06 07:32:53;;;;;;;4.50;0.87;;;18.90;99.90;;;20.14;nan;101999.06;5010347;28;21002;-64
2022/10/06 07:35:21;;;;;;;1.50;1.20;;;19.00;99.90;;;20.20;nan;102004.81;5010706;28;20661;-64
2022/10/06 07:37:51;;;;;;;2.30;0.67;;;19.20;99.90;;;20.08;nan;102004.94;5011047;28;20672;-64
2022/10/06 07:40:19;;;;;;;2.30;0.70;;;19.20;99.90;;;20.19;nan;102011.09;5010782;28;20630;-64
2022/10/06 07:42:50;;;;;;;1.77;1.17;;;19.20;99.90;;;21.07;nan;102023.16;5010614;28;21180;-64
2022/10/06 07:45:39;;;;;;;2.10;1.00;;;19.50;99.90;;;21.66;nan;102021.94;5001517;28;20650;-64
2022/10/06 07:48:19;;;;;;;2.10;1.20;;;20.10;99.90;;;21.66;nan;102037.88;5011503;28;20621;-64
2022/10/06 07:50:49;;;;;;;1.10;1.00;;;20.30;99.90;;;22.07;nan;102050.66;5010689;28;21258;-64
2022/10/06 07:53:17;;;;;;;1.00;1.00;;;20.50;99.90;;;24.03;nan;102038.28;5011175;28;20602;-64
2022/10/06 07:55:46;;;;;;;2.20;1.00;;;21.30;99.90;;;26.61;nan;102043.69;5010388;28;20662;-64
2022/10/06 07:58:17;;;;;;;1.30;0.80;;;23.00;99.90;;;27.96;nan;102032.63;4992593;28;20622;-64
2022/10/06 08:00:47;;;;;;;1.73;1.00;;;24.10;99.90;;;30.44;nan;102047.63;5002193;28;20643;-65
2022/10/06 08:03:18;;;;;;;2.97;1.00;;;25.90;95.70;;;32.40;nan;102050.72;5011215;28;20630;-64
2022/10/06 08:05:49;;;;;;;2.70;1.10;;;27.50;90.60;;;32.90;nan;102057.78;5005559;28;21150;-69
2022/10/06 08:08:16;;;;;;;3.60;1.03;;;28.70;80.30;;;33.41;nan;102055.59;4988337;28;20691;-63
2022/10/06 08:10:53;;;;;;;2.80;2.07;;;29.60;71.60;;;31.79;nan;102059.41;5010677;28;20638;-69
2022/10/06 08:13:20;;;;;;;2.50;1.73;;;29.30;65.50;;;31.79;nan;102047.78;4990846;28;21057;-67
2022/10/06 08:15:49;;;;;;;3.17;1.03;;;29.00;65.70;;;33.31;nan;102060.69;5009430;28;20707;-70
2022/10/06 08:18:17;;;;;;;1.10;0.90;;;29.70;63.30;;;35.14;nan;102069.88;5009368;28;20716;-69
2022/10/06 08:21:18;;;;;;;4.80;0.90;;;30.90;60.20;;;37.60;nan;102071.47;4995987;28;21106;-68
2022/10/06 08:23:47;;;;;;;2.90;1.03;;;32.20;57.40;;;37.85;nan;102074.47;4992362;28;21233;-70
2022/10/06 08:26:16;;;;;;;1.57;0.97;;;33.00;55.40;;;36.52;nan;102065.81;4993608;28;20661;-71
2022/10/06 08:28:47;;;;;;;2.10;1.00;;;32.90;54.40;;;38.20;nan;102073.19;5013056;28;21264;-69
2022/10/06 08:31:17;;;;;;;2.23;1.20;;;33.40;53.60;;;37.61;nan;102073.09;5006472;28;21043;-67
2022/10/06 08:33:45;;;;;;;4.17;1.40;;;33.40;52.80;;;37.76;nan;102072.47;5019867;28;20640;-68
2022/10/06 08:36:19;;;;;;;2.10;1.00;;;33.40;52.80;;;37.51;nan;102064.81;5013088;28;21351;-68
2022/10/06 08:38:49;;;;;;;2.50;1.23;;;33.70;52.60;;;36.87;nan;102074.50;4992544;28;20625;-68
2022/10/06 08:41:28;;;;;;;2.63;1.30;;;33.50;51.50;;;38.76;nan;102073.41;5010973;28;20638;-70
2022/10/06 08:44:14;;;;;;;1.53;0.90;;;34.20;51.20;;;39.04;nan;102085.06;5013660;28;20630;-70
2022/10/06 08:47:06;;;;;;;4.20;1.20;;;34.50;50.30;;;40.91;nan;102078.91;5013553;28;21228;-69
2022/10/06 08:49:40;;;;;;;6.27;1.30;;;35.30;50.00;;;40.24;nan;102081.94;4996074;28;20625;-71
2022/10/06 08:52:47;;;;;;;1.93;0.97;;;35.50;49.10;;;42.21;nan;102082.13;4995615;28;20642;-69
2022/10/06 08:55:29;;;;;;;2.03;1.00;;;36.50;48.60;;;43.45;nan;102092.09;4995505;28;21184;-70
2022/10/06 08:58:36;;;;;;;1.33;0.90;;;37.30;47.30;;;45.58;nan;102096.38;4997655;28;20677;-70
2022/10/06 09:01:43;;;;;;;2.33;1.30;;;38.40;46.50;;;46.17;nan;102088.94;5012031;28;20695;-71
2022/10/06 09:04:27;;;;;;;1.60;0.93;;;39.00;45.30;;;46.99;nan;102092.00;5013825;28;20622;-70
2022/10/06 09:07:09;;;;;;;1.33;0.93;;;39.60;44.50;;;47.99;nan;102093.66;4993729;28;20665;-71
2022/10/06 09:10:18;;;;;;;1.60;0.80;;;40.30;44.00;;;47.25;nan;102101.22;4995932;28;20629;-71
2022/10/06 09:13:07;;;;;;;1.63;0.80;;;40.30;42.30;;;46.21;nan;102092.69;5013267;28;20609;-70
2022/10/06 09:15:43;;;;;;;1.30;1.00;;;39.90;42.50;;;45.23;nan;102089.69;4995642;28;20792;-70
2022/10/06 09:18:26;;;;;;;1.53;1.33;;;39.30;41.80;;;43.62;nan;102091.59;4995090;28;20737;-70
2022/10/06 09:21:05;;;;;;;2.93;1.10;;;38.50;41.50;;;42.93;nan;102090.25;4997266;28;20613;-70
2022/10/06 09:23:46;;;;;;;1.10;0.90;;;37.90;41.90;;;45.28;nan;102095.09;4996206;28;20652;-70
2022/10/06 09:26:21;;;;;;;1.23;1.00;;;38.60;41.90;;;46.51;nan;102097.47;5010529;23;20693;-72
2022/10/06 09:28:50;;;;;;;2.20;1.00;;;39.30;41.00;;;47.86;nan;102105.69;5011395;28;20636;-71
2022/10/06 09:31:30;;;;;;;1.00;0.90;;;39.90;39.80;;;49.08;nan;102100.34;4986947;28;20634;-70
2022/10/06 09:34:04;;;;;;;1.20;1.10;;;40.80;38.90;;;49.44;nan;102107.00;4992845;28;20622;-68
2022/10/06 09:36:31;;;;;;;3.43;1.70;;;41.60;38.00;;;50.74;nan;102104.63;4993808;28;20724;-69
2022/10/06 09:38:59;;;;;;;3.23;1.20;;;42.20;37.80;;;50.05;nan;102110.91;4992740;28;20635;-69
2022/10/06 09:41:26;;;;;;;1.07;1.00;;;42.40;37.60;;;48.29;nan;102104.53;4993513;28;20729;-68
2022/10/06 09:44:03;;;;;;;4.43;1.00;;;41.60;37.80;;;48.78;nan;102105.88;4992748;28;20623;-69
2022/10/06 09:46:40;;;;;;;1.07;0.90;;;41.40;38.00;;;48.00;nan;102112.72;4994070;28;21247;-68
2022/10/06 09:49:15;;;;;;;2.70;1.47;;;41.00;38.10;;;42.77;nan;102101.63;5006908;28;20625;-67
2022/10/06 09:52:10;;;;;;;3.10;1.20;;;39.30;37.20;;;43.18;nan;102098.19;5006956;28;20629;-68
2022/10/06 09:54:40;;;;;;;1.30;1.10;;;38.70;38.00;;;41.87;nan;102092.22;5008156;28;20634;-67
2022/10/06 09:57:20;;;;;;;1.10;0.90;;;37.90;37.90;;;42.77;nan;102093.41;5008894;28;20674;-68
2022/10/06 09:59:47;;;;;;;1.50;1.10;;;37.70;37.80;;;45.43;nan;102098.66;5008473;28;20639;-68
2022/10/06 10:02:35;;;;;;;1.17;1.10;;;38.50;37.50;;;48.09;nan;102115.50;5011119;28;20642;-69
2022/10/06 10:05:18;;;;;;;2.13;1.20;;;39.70;36.90;;;48.23;nan;102111.41;4992264;28;20665;-66
2022/10/06 10:07:59;;;;;;;1.10;1.10;;;40.50;36.70;;;49.92;nan;102105.69;4994463;28;20662;-65
2022/10/06 10:10:26;;;;;;;1.30;1.20;;;41.50;35.90;;;48.13;nan;102106.19;4988406;28;20637;-67
2022/10/06 10:12:57;;;;;;;2.00;0.97;;;41.70;35.40;;;47.61;nan;102098.19;4994351;28;20693;-67
2022/10/06 10:15:53;;;;;;;2.70;1.20;;;41.40;35.10;;;47.48;nan;102089.72;4994111;28;20624;-67
2022/10/06 10:18:26;;;;;;;1.20;1.10;;;41.30;34.80;;;48.49;nan;102096.69;4994886;28;20675;-67
2022/10/06 10:21:04;;;;;;;0.90;0.90;;;41.50;34.50;;;49.05;nan;102089.97;4982628;28;20631;-68
2022/10/06 10:23:54;;;;;;;1.10;1.00;;;41.60;33.60;;;46.06;nan;102089.22;4991532;28;20631;-67
2022/10/06 10:26:43;;;;;;;3.00;1.20;;;40.60;33.30;;;46.13;nan;102090.72;4986609;28;20663;-70
2022/10/06 10:29:48;;;;;;;2.00;0.83;;;40.00;33.80;;;42.91;nan;102087.00;5002632;28;20641;-72
2022/10/06 10:32:43;;;;;;;0.60;0.60;;;38.20;33.50;;;39.60;nan;102078.78;5010863;28;20683;-68
2022/10/06 10:35:19;;;;;;;0.70;0.67;;;36.00;34.70;;;35.60;nan;102078.78;4986183;28;20664;-67
2022/10/06 10:37:52;;;;;;;1.70;1.10;;;33.50;36.60;;;33.52;nan;102076.50;5004275;28;21247;-71
2022/10/06 10:40:35;;;;;;;1.27;0.80;;;31.90;38.50;;;31.65;nan;102076.69;4985378;28;20639;-69
2022/10/06 10:43:14;;;;;;;2.30;0.90;;;30.30;38.80;;;29.36;nan;102068.34;4986474;28;21209;-68
2022/10/06 10:45:54;;;;;;;6.93;0.80;;;28.70;40.70;;;27.75;nan;102073.63;5008125;28;20617;-68
2022/10/06 10:48:41;;;;;;;1.10;0.90;;;27.20;42.20;;;27.30;nan;102068.50;5004767;28;20618;-68
2022/10/06 10:51:20;;;;;;;2.73;1.00;;;26.40;43.40;;;26.49;nan;102079.13;4992892;28;20676;-68
2022/10/06 10:53:49;;;;;;;1.67;0.90;;;25.60;45.70;;;25.84;nan;102068.78;5005804;28;20684;-70
2022/10/06 10:56:20;;;;;;;2.30;0.90;;;25.00;46.70;;;25.41;nan;102066.59;4987367;28;21253;-65